Weather reports worldwide

Advertisment
Villardeciervos, Spain (8125): temperature & dewpoint: 17.05.2019 14:00:00 - 23.05.2019 14:00:00 (CEST)Villardeciervos, Spain (8125): wind speed & gusts: 17.05.2019 14:00:00 - 23.05.2019 14:00:00 (CEST)Villardeciervos, Spain (8125): wind direction: 17.05.2019 14:00:00 - 23.05.2019 14:00:00 (CEST)Villardeciervos, Spain (8125): visibility: 17.05.2019 14:00:00 - 23.05.2019 14:00:00 (CEST)Villardeciervos, Spain (8125): sunshine duration: 17.05.2019 14:00:00 - 23.05.2019 14:00:00 (CEST)Villardeciervos, Spain (8125): precipitation: 17.05.2019 14:00:00 - 23.05.2019 14:00:00 (CEST)
Date & Time tt [°C] td [°C] ff [km/h] ff [kn] fx [km/h] fx [kn] dd vv [km] sd [min] rr [mm]
23.05.2019 14:00:00 - - - - - - - - - -
23.05.2019 13:00:00 21,3 5,1 10 5 25 13 SW 20 60 0,0
23.05.2019 12:00:00 20,7 4,3 6 4 15 8 WNW 20 57 0,0
23.05.2019 11:00:00 18,2 7,8 7 4 13 7 SSW 20 60 0,0
23.05.2019 10:00:00 14,6 10,0 3 2 11 6 ENE 20 18 0,0
23.05.2019 09:00:00 11,4 8,4 1 1 5 3 ESE 20 1 0,0
23.05.2019 08:00:00 10,0 8,0 3 2 6 3 N 17 0 -
23.05.2019 07:00:00 10,0 7,6 2 1 5 3 SW 20 0 0,0
23.05.2019 06:00:00 9,5 7,0 3 2 4 2 NNW 20 0 0,0
23.05.2019 05:00:00 9,9 7,0 2 1 7 4 WNW 20 0 0,0
23.05.2019 04:00:00 10,2 7,3 1 1 9 5 SW 20 0 0,0
23.05.2019 03:00:00 10,8 7,0 7 4 10 5 SSE 20 0 0,0
23.05.2019 02:00:00 12,3 7,1 4 2 13 7 SE 20 0 -
23.05.2019 01:00:00 13,6 7,4 4 2 19 10 S 20 0 0,0
23.05.2019 00:00:00 16,9 7,8 10 5 22 12 W 20 0 0,0
22.05.2019 23:00:00 18,0 7,1 8 5 22 12 W 20 0 0,0
22.05.2019 22:00:00 18,6 3,9 8 5 14 7 SW 20 7 0,0
22.05.2019 21:00:00 22,4 2,5 10 6 29 16 WSW 20 60 0,0
22.05.2019 20:00:00 23,7 2,5 12 7 30 16 SW 20 60 -
22.05.2019 19:00:00 24,3 2,5 15 8 33 18 SW 20 60 0,0
22.05.2019 18:00:00 24,8 3,9 9 5 31 17 SSW 20 60 0,0
22.05.2019 17:00:00 24,7 5,0 7 4 30 16 S 20 60 0,0
22.05.2019 16:00:00 23,6 3,4 11 6 31 17 SW 20 55 0,0
22.05.2019 15:00:00 22,7 4,3 11 6 28 15 S 20 47 0,0
22.05.2019 14:00:00 23,0 5,5 9 5 19 11 W 20 53 -
22.05.2019 13:00:00 21,8 4,8 4 2 21 11 ENE 20 60 0,0
22.05.2019 12:00:00 19,0 5,1 5 3 14 8 ESE 17 60 0,0
22.05.2019 11:00:00 16,7 2,3 4 2 15 8 E 20 60 0,0
22.05.2019 10:00:00 14,6 3,0 5 3 12 7 ENE 20 60 0,0
22.05.2019 09:00:00 11,7 7,0 1 1 4 2 N 20 60 0,0
22.05.2019 08:00:00 5,8 3,9 1 1 4 2 ESE 20 20 -
22.05.2019 07:00:00 4,4 2,3 1 1 5 3 SSW 20 0 0,0
22.05.2019 06:00:00 5,4 2,9 2 1 5 3 W 20 0 0,0
22.05.2019 05:00:00 6,9 3,9 2 1 5 3 S 20 0 0,0
22.05.2019 04:00:00 6,5 3,2 3 1 5 3 SSW 20 0 0,0
22.05.2019 03:00:00 7,9 3,8 3 1 9 5 S 20 0 0,0
22.05.2019 02:00:00 9,9 4,1 2 1 7 4 ESE 20 0 -
22.05.2019 01:00:00 9,4 3,8 3 2 16 9 SSE 20 0 0,0
22.05.2019 00:00:00 11,7 3,9 4 2 9 5 S 20 0 0,0
21.05.2019 23:00:00 14,0 3,4 5 3 13 7 S 20 0 0,0
21.05.2019 22:00:00 16,4 3,8 3 1 9 5 SE 20 6 0,0
21.05.2019 21:00:00 21,3 3,0 7 4 14 8 WNW 20 60 0,0
21.05.2019 20:00:00 23,6 1,3 6 3 18 10 NW 20 60 -
21.05.2019 19:00:00 23,1 0,9 7 4 14 7 N 20 58 0,0
21.05.2019 18:00:00 23,6 0,0 5 3 19 10 SSW 20 60 0,0
21.05.2019 17:00:00 22,9 2,3 6 3 18 10 NW 20 54 0,0
21.05.2019 16:00:00 22,5 1,5 6 4 22 12 WSW 20 60 0,0
21.05.2019 15:00:00 21,4 2,1 7 4 22 12 ENE 20 60 0,0
21.05.2019 14:00:00 20,1 2,5 6 4 22 12 SE 20 60 -
21.05.2019 13:00:00 19,0 3,2 9 5 22 12 ESE 20 60 0,0
21.05.2019 12:00:00 17,7 4,3 9 5 23 12 NE 20 60 0,0
21.05.2019 11:00:00 15,5 3,9 10 5 28 15 NE 20 60 0,0
21.05.2019 10:00:00 13,6 4,1 10 5 22 12 E 20 60 0,0
21.05.2019 09:00:00 10,8 4,6 3 2 6 3 E 20 60 0,0
21.05.2019 08:00:00 4,6 2,5 4 2 14 8 S 20 19 -
21.05.2019 07:00:00 4,3 1,7 4 2 9 5 SSE 20 0 0,0
21.05.2019 06:00:00 6,5 2,9 3 1 5 3 SSW 20 0 0,0
21.05.2019 05:00:00 6,1 2,1 3 1 8 4 S 20 0 0,0
21.05.2019 04:00:00 7,2 1,5 3 1 5 3 SW 20 0 0,0
21.05.2019 03:00:00 8,6 1,3 1 1 20 11 SSE 20 0 0,0
21.05.2019 02:00:00 9,4 0,2 3 2 8 5 S 20 0 -
21.05.2019 01:00:00 9,6 0,0 5 3 12 6 SSE 20 0 0,0
21.05.2019 00:00:00 10,7 0,2 4 2 22 12 S 20 0 0,0
20.05.2019 23:00:00 12,8 -0,5 10 6 22 12 W 20 0 0,0
20.05.2019 22:00:00 13,6 0,2 11 6 23 12 SW 20 0 0,0
20.05.2019 21:00:00 15,7 1,7 10 5 21 11 WSW 20 0 0,0
20.05.2019 20:00:00 16,6 2,7 10 6 23 13 WSW 20 34 -
20.05.2019 19:00:00 18,6 2,9 10 5 29 16 SW 20 50 0,0
20.05.2019 18:00:00 18,2 2,5 10 5 25 14 WSW 20 18 0,0
20.05.2019 17:00:00 17,6 2,3 10 5 22 12 SW 20 34 0,0
20.05.2019 16:00:00 19,9 1,9 5 3 24 13 N 20 60 0,0
20.05.2019 15:00:00 18,1 1,1 6 3 18 10 ENE 20 60 0,0
20.05.2019 14:00:00 16,8 2,5 7 4 24 13 ESE 20 59 -
20.05.2019 13:00:00 15,6 2,7 7 4 22 12 E 20 60 0,0
20.05.2019 12:00:00 13,2 3,0 7 4 24 13 NE 13 59 0,0
20.05.2019 11:00:00 12,0 2,5 13 7 25 13 E 20 60 0,0
20.05.2019 10:00:00 9,2 3,4 4 2 69 37 NE 20 29 0,0
20.05.2019 09:00:00 5,9 2,9 2 1 6 4 NE 20 33 0,0
20.05.2019 08:00:00 1,6 0,0 0 0 8 4 N 20 5 -
20.05.2019 07:00:00 0,9 -0,7 4 2 6 4 S 20 0 0,0
20.05.2019 06:00:00 1,6 -0,3 1 1 4 2 SSW 20 0 0,0
20.05.2019 05:00:00 3,1 0,4 1 1 4 2 N 20 0 0,0
20.05.2019 04:00:00 4,2 1,5 0 0 5 3 N 20 0 0,0
20.05.2019 03:00:00 5,2 1,7 1 1 10 5 NNW 20 0 0,0
20.05.2019 02:00:00 6,6 2,3 4 2 11 6 NNE 20 0 -
20.05.2019 01:00:00 8,1 2,7 7 4 14 8 E 20 0 0,0
20.05.2019 00:00:00 8,2 0,2 5 3 13 7 E 20 0 0,0
19.05.2019 23:00:00 9,5 -0,5 6 3 27 14 SE 20 0 0,0
19.05.2019 22:00:00 12,4 -1,0 11 6 22 12 WSW 20 5 0,0
19.05.2019 21:00:00 15,7 -1,0 12 7 26 14 WSW 20 60 0,0
19.05.2019 20:00:00 18,0 -0,7 9 5 23 12 WSW 20 50 -
19.05.2019 19:00:00 18,9 -2,2 9 5 22 12 SW 20 56 0,0
19.05.2019 18:00:00 16,4 -1,2 5 3 18 10 S 20 26 0,0
19.05.2019 17:00:00 16,0 -2,0 8 5 18 10 SSW 20 19 0,0
19.05.2019 16:00:00 18,0 1,1 11 6 24 13 W 20 57 0,0
19.05.2019 15:00:00 16,6 -2,0 7 4 18 10 NE 20 60 0,0
19.05.2019 14:00:00 15,6 -1,0 7 4 19 10 ESE 20 57 -
19.05.2019 13:00:00 14,3 -1,4 8 4 20 11 S 20 60 0,0
19.05.2019 12:00:00 12,8 0,2 5 3 28 15 SSW 20 57 0,0
19.05.2019 11:00:00 11,2 1,1 16 9 30 16 SE 20 58 0,0
19.05.2019 10:00:00 9,4 1,5 3 2 7 4 ENE 20 60 0,0
19.05.2019 09:00:00 5,2 1,1 1 1 6 3 ESE 20 60 0,0
19.05.2019 08:00:00 0,5 -0,7 2 1 6 3 WNW 20 18 -
19.05.2019 07:00:00 -1,5 -3,0 3 1 4 2 S 20 0 0,0
19.05.2019 06:00:00 -0,7 -2,5 1 1 5 3 SSE 20 0 0,0
19.05.2019 05:00:00 0,4 -1,4 2 1 5 3 WSW 20 0 0,0
19.05.2019 04:00:00 1,4 -1,4 2 1 10 5 ESE 20 0 0,0
19.05.2019 03:00:00 3,1 -0,3 4 2 12 7 SSE 20 0 0,0
19.05.2019 02:00:00 3,3 -0,3 4 2 12 7 S 20 0 -
19.05.2019 01:00:00 4,6 0,0 5 3 9 5 S 20 0 0,0
19.05.2019 00:00:00 7,2 0,4 4 2 24 13 S 20 0 0,0
18.05.2019 23:00:00 8,4 0,9 13 7 24 13 WNW 20 0 0,0
18.05.2019 22:00:00 9,3 1,5 10 6 25 13 NW 20 4 0,0
18.05.2019 21:00:00 13,2 1,3 13 7 34 18 NNW 20 60 0,0
18.05.2019 20:00:00 13,8 1,5 16 9 43 23 NW 20 45 -
18.05.2019 19:00:00 14,3 -0,5 18 10 40 22 NW 20 22 0,0
18.05.2019 18:00:00 16,0 -0,7 15 8 35 19 NW 20 60 0,0
18.05.2019 17:00:00 16,5 0,2 10 5 34 19 NNW 20 41 0,0
18.05.2019 16:00:00 13,7 -1,2 9 5 25 13 NW 20 1 0,0
18.05.2019 15:00:00 14,0 -1,2 7 4 16 9 NNW 20 9 0,0
18.05.2019 14:00:00 14,1 1,3 7 4 19 10 N 20 16 -
18.05.2019 13:00:00 13,5 -0,3 6 4 19 10 W 20 16 0,0
18.05.2019 12:00:00 13,8 1,7 6 3 21 12 NW 20 58 0,0
18.05.2019 11:00:00 11,3 0,0 5 3 22 12 WSW 20 60 0,0
18.05.2019 10:00:00 9,7 0,2 10 5 20 11 WSW 20 60 0,0
18.05.2019 09:00:00 7,2 -0,3 12 7 25 13 W 20 60 0,0
18.05.2019 08:00:00 4,7 -1,4 10 5 20 11 WSW 20 17 -
18.05.2019 07:00:00 1,5 -2,2 6 3 23 12 S 20 0 0,0
18.05.2019 06:00:00 2,3 -1,2 9 5 23 12 SSW 20 0 0,0
18.05.2019 05:00:00 3,5 -1,2 9 5 24 13 W 20 0 0,0
18.05.2019 04:00:00 4,6 -1,0 14 8 31 17 W 20 0 0,0
18.05.2019 03:00:00 5,2 -1,4 13 7 26 14 W 20 0 0,0
18.05.2019 02:00:00 4,9 -2,2 6 3 24 13 W 20 0 -
18.05.2019 01:00:00 5,4 -1,2 10 6 29 16 W 20 0 0,0
18.05.2019 00:00:00 6,6 -0,7 14 8 28 15 W 20 0 0,0
17.05.2019 23:00:00 6,9 -1,2 8 4 27 15 W 20 0 0,0
17.05.2019 22:00:00 8,1 -1,7 15 8 45 24 NW 20 5 0,0
17.05.2019 21:00:00 10,5 0,2 17 9 42 23 NW 20 60 0,0
17.05.2019 20:00:00 12,5 1,3 18 10 40 22 WNW 20 60 -
17.05.2019 19:00:00 13,6 0,9 19 10 44 24 W 20 55 0,0
17.05.2019 18:00:00 14,0 0,9 24 13 40 22 W 20 58 0,0
17.05.2019 17:00:00 14,4 3,2 23 13 44 24 NW 20 48 0,0
17.05.2019 16:00:00 14,6 -1,2 20 11 42 23 NW 20 48 0,0
17.05.2019 15:00:00 14,5 3,0 21 11 44 24 WNW 20 59 0,0
17.05.2019 14:00:00 12,9 2,7 24 13 43 23 WNW 20 33 -

tt = temperature
td = dewpoint
ff = wind speed
fx = gusts
dd = wind direction
vv = visibility
sd = sunshine duration
rr = precipitation

Next stations